sensor_id;sensor_type;location;lat;lon;timestamp;P1;durP1;ratioP1;P2;durP2;ratioP2
36321;SDS011;23564;48.290;11.460;2023-06-10T00:00:11;9.27;;;7.25;;
36321;SDS011;23564;48.290;11.460;2023-06-10T00:02:39;9.88;;;7.57;;
36321;SDS011;23564;48.290;11.460;2023-06-10T00:05:05;8.15;;;6.72;;
36321;SDS011;23564;48.290;11.460;2023-06-10T00:07:32;9.20;;;7.28;;
36321;SDS011;23564;48.290;11.460;2023-06-10T00:09:59;15.70;;;6.88;;
36321;SDS011;23564;48.290;11.460;2023-06-10T00:12:27;11.50;;;7.22;;
36321;SDS011;23564;48.290;11.460;2023-06-10T00:14:54;12.07;;;7.20;;
36321;SDS011;23564;48.290;11.460;2023-06-10T00:17:19;9.38;;;7.13;;
36321;SDS011;23564;48.290;11.460;2023-06-10T00:19:45;9.85;;;7.07;;
36321;SDS011;23564;48.290;11.460;2023-06-10T00:22:11;8.07;;;6.63;;
36321;SDS011;23564;48.290;11.460;2023-06-10T00:24:37;9.38;;;7.07;;
36321;SDS011;23564;48.290;11.460;2023-06-10T00:27:04;11.00;;;6.60;;
36321;SDS011;23564;48.290;11.460;2023-06-10T00:29:30;10.70;;;6.70;;
36321;SDS011;23564;48.290;11.460;2023-06-10T00:31:56;8.13;;;6.38;;
36321;SDS011;23564;48.290;11.460;2023-06-10T00:34:22;9.75;;;7.00;;
36321;SDS011;23564;48.290;11.460;2023-06-10T00:36:48;9.48;;;7.30;;
36321;SDS011;23564;48.290;11.460;2023-06-10T00:39:14;8.43;;;6.72;;
36321;SDS011;23564;48.290;11.460;2023-06-10T00:41:40;9.23;;;7.57;;
36321;SDS011;23564;48.290;11.460;2023-06-10T00:44:05;8.93;;;7.10;;
36321;SDS011;23564;48.290;11.460;2023-06-10T00:46:31;9.73;;;7.30;;
36321;SDS011;23564;48.290;11.460;2023-06-10T00:48:58;9.00;;;7.53;;
36321;SDS011;23564;48.290;11.460;2023-06-10T00:51:24;11.65;;;7.38;;
36321;SDS011;23564;48.290;11.460;2023-06-10T00:53:51;10.05;;;7.43;;
36321;SDS011;23564;48.290;11.460;2023-06-10T00:56:17;10.90;;;7.88;;
36321;SDS011;23564;48.290;11.460;2023-06-10T00:58:43;9.63;;;8.27;;
36321;SDS011;23564;48.290;11.460;2023-06-10T01:01:09;13.52;;;8.02;;
36321;SDS011;23564;48.290;11.460;2023-06-10T01:03:36;10.50;;;8.48;;
36321;SDS011;23564;48.290;11.460;2023-06-10T01:06:18;10.45;;;8.20;;
36321;SDS011;23564;48.290;11.460;2023-06-10T01:08:55;12.65;;;8.05;;
36321;SDS011;23564;48.290;11.460;2023-06-10T01:11:29;11.57;;;8.18;;
36321;SDS011;23564;48.290;11.460;2023-06-10T01:14:09;12.57;;;9.07;;
36321;SDS011;23564;48.290;11.460;2023-06-10T01:16:34;15.00;;;8.93;;
36321;SDS011;23564;48.290;11.460;2023-06-10T01:19:02;13.25;;;9.32;;
36321;SDS011;23564;48.290;11.460;2023-06-10T01:21:28;10.57;;;8.70;;
36321;SDS011;23564;48.290;11.460;2023-06-10T01:23:54;10.18;;;9.00;;
36321;SDS011;23564;48.290;11.460;2023-06-10T01:26:22;16.60;;;9.52;;
36321;SDS011;23564;48.290;11.460;2023-06-10T01:29:14;9.80;;;8.23;;
36321;SDS011;23564;48.290;11.460;2023-06-10T01:34:16;16.52;;;9.57;;
36321;SDS011;23564;48.290;11.460;2023-06-10T01:36:44;15.30;;;9.50;;
36321;SDS011;23564;48.290;11.460;2023-06-10T01:39:12;16.05;;;9.68;;
36321;SDS011;23564;48.290;11.460;2023-06-10T01:41:39;15.77;;;10.07;;
36321;SDS011;23564;48.290;11.460;2023-06-10T01:44:05;12.43;;;10.10;;
36321;SDS011;23564;48.290;11.460;2023-06-10T01:46:31;12.70;;;9.93;;
36321;SDS011;23564;48.290;11.460;2023-06-10T01:48:56;13.32;;;9.57;;
36321;SDS011;23564;48.290;11.460;2023-06-10T01:51:22;15.55;;;11.48;;
36321;SDS011;23564;48.290;11.460;2023-06-10T01:53:48;11.68;;;10.02;;
36321;SDS011;23564;48.290;11.460;2023-06-10T01:56:13;13.60;;;9.98;;
36321;SDS011;23564;48.290;11.460;2023-06-10T01:58:42;15.30;;;10.00;;
36321;SDS011;23564;48.290;11.460;2023-06-10T02:01:09;12.32;;;9.85;;
36321;SDS011;23564;48.290;11.460;2023-06-10T02:03:34;13.55;;;9.40;;
36321;SDS011;23564;48.290;11.460;2023-06-10T02:06:00;11.70;;;9.07;;
36321;SDS011;23564;48.290;11.460;2023-06-10T02:08:25;10.60;;;9.05;;
36321;SDS011;23564;48.290;11.460;2023-06-10T02:10:52;11.43;;;8.35;;
36321;SDS011;23564;48.290;11.460;2023-06-10T02:13:18;12.32;;;8.18;;
36321;SDS011;23564;48.290;11.460;2023-06-10T02:15:44;15.23;;;9.65;;
36321;SDS011;23564;48.290;11.460;2023-06-10T02:18:09;10.10;;;8.95;;
36321;SDS011;23564;48.290;11.460;2023-06-10T02:20:37;11.00;;;8.68;;
36321;SDS011;23564;48.290;11.460;2023-06-10T02:23:05;11.43;;;9.38;;
36321;SDS011;23564;48.290;11.460;2023-06-10T02:25:31;13.20;;;9.35;;
36321;SDS011;23564;48.290;11.460;2023-06-10T02:27:56;11.27;;;9.10;;
36321;SDS011;23564;48.290;11.460;2023-06-10T02:30:22;12.25;;;9.57;;
36321;SDS011;23564;48.290;11.460;2023-06-10T02:32:47;12.07;;;9.80;;
36321;SDS011;23564;48.290;11.460;2023-06-10T02:35:14;12.38;;;10.10;;
36321;SDS011;23564;48.290;11.460;2023-06-10T02:37:40;13.02;;;10.00;;
36321;SDS011;23564;48.290;11.460;2023-06-10T02:40:06;12.13;;;10.02;;
36321;SDS011;23564;48.290;11.460;2023-06-10T02:42:33;14.30;;;9.57;;
36321;SDS011;23564;48.290;11.460;2023-06-10T02:44:59;11.52;;;9.40;;
36321;SDS011;23564;48.290;11.460;2023-06-10T02:47:25;13.50;;;10.38;;
36321;SDS011;23564;48.290;11.460;2023-06-10T02:49:51;14.00;;;10.23;;
36321;SDS011;23564;48.290;11.460;2023-06-10T02:52:17;12.75;;;9.20;;
36321;SDS011;23564;48.290;11.460;2023-06-10T02:54:42;11.48;;;10.07;;
36321;SDS011;23564;48.290;11.460;2023-06-10T02:57:08;14.88;;;11.27;;
36321;SDS011;23564;48.290;11.460;2023-06-10T02:59:34;12.35;;;9.45;;
36321;SDS011;23564;48.290;11.460;2023-06-10T03:02:00;15.40;;;10.18;;
36321;SDS011;23564;48.290;11.460;2023-06-10T03:04:26;13.77;;;10.98;;
36321;SDS011;23564;48.290;11.460;2023-06-10T03:06:54;13.80;;;10.52;;
36321;SDS011;23564;48.290;11.460;2023-06-10T03:09:20;16.73;;;11.05;;
36321;SDS011;23564;48.290;11.460;2023-06-10T03:11:45;15.00;;;12.20;;
36321;SDS011;23564;48.290;11.460;2023-06-10T03:14:11;14.60;;;11.95;;
36321;SDS011;23564;48.290;11.460;2023-06-10T03:16:37;14.77;;;11.68;;
36321;SDS011;23564;48.290;11.460;2023-06-10T03:19:05;13.73;;;11.82;;
36321;SDS011;23564;48.290;11.460;2023-06-10T03:21:31;14.18;;;11.40;;
36321;SDS011;23564;48.290;11.460;2023-06-10T03:23:56;16.50;;;12.23;;
36321;SDS011;23564;48.290;11.460;2023-06-10T03:26:22;16.48;;;11.57;;
36321;SDS011;23564;48.290;11.460;2023-06-10T03:28:48;13.00;;;11.40;;
36321;SDS011;23564;48.290;11.460;2023-06-10T03:31:14;14.88;;;10.77;;
36321;SDS011;23564;48.290;11.460;2023-06-10T03:33:41;13.73;;;10.75;;
36321;SDS011;23564;48.290;11.460;2023-06-10T03:36:07;15.30;;;11.32;;
36321;SDS011;23564;48.290;11.460;2023-06-10T03:38:33;15.02;;;10.77;;
36321;SDS011;23564;48.290;11.460;2023-06-10T03:40:58;12.80;;;10.52;;
36321;SDS011;23564;48.290;11.460;2023-06-10T03:43:24;14.43;;;10.98;;
36321;SDS011;23564;48.290;11.460;2023-06-10T03:45:49;14.40;;;11.13;;
36321;SDS011;23564;48.290;11.460;2023-06-10T03:48:15;12.35;;;10.55;;
36321;SDS011;23564;48.290;11.460;2023-06-10T03:50:42;14.00;;;10.90;;
36321;SDS011;23564;48.290;11.460;2023-06-10T03:53:07;16.15;;;11.93;;
36321;SDS011;23564;48.290;11.460;2023-06-10T03:55:33;13.38;;;10.82;;
36321;SDS011;23564;48.290;11.460;2023-06-10T03:57:58;15.32;;;11.20;;
36321;SDS011;23564;48.290;11.460;2023-06-10T04:00:24;12.07;;;10.40;;
36321;SDS011;23564;48.290;11.460;2023-06-10T04:02:50;13.60;;;10.90;;
36321;SDS011;23564;48.290;11.460;2023-06-10T04:05:17;17.42;;;11.18;;
36321;SDS011;23564;48.290;11.460;2023-06-10T04:07:45;12.70;;;10.82;;
36321;SDS011;23564;48.290;11.460;2023-06-10T04:10:11;13.20;;;10.27;;
36321;SDS011;23564;48.290;11.460;2023-06-10T04:12:37;12.63;;;10.82;;
36321;SDS011;23564;48.290;11.460;2023-06-10T04:15:03;17.35;;;10.77;;
36321;SDS011;23564;48.290;11.460;2023-06-10T04:17:29;14.77;;;10.73;;
36321;SDS011;23564;48.290;11.460;2023-06-10T04:19:55;13.52;;;10.75;;
36321;SDS011;23564;48.290;11.460;2023-06-10T04:22:21;12.70;;;10.15;;
36321;SDS011;23564;48.290;11.460;2023-06-10T04:24:47;13.77;;;10.65;;
36321;SDS011;23564;48.290;11.460;2023-06-10T04:27:13;12.73;;;10.23;;
36321;SDS011;23564;48.290;11.460;2023-06-10T04:29:39;11.27;;;9.82;;
36321;SDS011;23564;48.290;11.460;2023-06-10T04:32:04;13.02;;;10.20;;
36321;SDS011;23564;48.290;11.460;2023-06-10T04:34:32;13.50;;;10.43;;
36321;SDS011;23564;48.290;11.460;2023-06-10T04:36:58;13.40;;;10.00;;
36321;SDS011;23564;48.290;11.460;2023-06-10T04:39:24;15.25;;;10.75;;
36321;SDS011;23564;48.290;11.460;2023-06-10T04:41:49;13.20;;;10.75;;
36321;SDS011;23564;48.290;11.460;2023-06-10T04:44:15;14.25;;;10.55;;
36321;SDS011;23564;48.290;11.460;2023-06-10T04:46:40;12.88;;;10.50;;
36321;SDS011;23564;48.290;11.460;2023-06-10T04:49:06;11.88;;;10.18;;
36321;SDS011;23564;48.290;11.460;2023-06-10T04:51:32;13.13;;;10.30;;
36321;SDS011;23564;48.290;11.460;2023-06-10T04:53:58;12.13;;;10.38;;
36321;SDS011;23564;48.290;11.460;2023-06-10T04:56:27;12.20;;;10.20;;
36321;SDS011;23564;48.290;11.460;2023-06-10T04:58:53;14.55;;;10.52;;
36321;SDS011;23564;48.290;11.460;2023-06-10T05:01:19;13.93;;;10.68;;
36321;SDS011;23564;48.290;11.460;2023-06-10T05:03:44;14.73;;;10.50;;
36321;SDS011;23564;48.290;11.460;2023-06-10T05:06:10;13.20;;;10.63;;
36321;SDS011;23564;48.290;11.460;2023-06-10T05:08:36;14.80;;;10.95;;
36321;SDS011;23564;48.290;11.460;2023-06-10T05:11:01;13.95;;;10.07;;
36321;SDS011;23564;48.290;11.460;2023-06-10T05:13:27;14.77;;;10.93;;
36321;SDS011;23564;48.290;11.460;2023-06-10T05:15:52;12.13;;;10.70;;
36321;SDS011;23564;48.290;11.460;2023-06-10T05:18:18;14.90;;;11.38;;
36321;SDS011;23564;48.290;11.460;2023-06-10T05:20:43;12.10;;;10.07;;
36321;SDS011;23564;48.290;11.460;2023-06-10T05:23:09;12.13;;;10.35;;
36321;SDS011;23564;48.290;11.460;2023-06-10T05:25:35;11.40;;;10.13;;
36321;SDS011;23564;48.290;11.460;2023-06-10T05:28:01;13.52;;;10.82;;
36321;SDS011;23564;48.290;11.460;2023-06-10T05:30:27;15.80;;;10.27;;
36321;SDS011;23564;48.290;11.460;2023-06-10T05:32:53;13.75;;;10.45;;
36321;SDS011;23564;48.290;11.460;2023-06-10T05:35:18;14.90;;;11.13;;
36321;SDS011;23564;48.290;11.460;2023-06-10T05:37:44;16.95;;;10.27;;
36321;SDS011;23564;48.290;11.460;2023-06-10T05:40:10;14.50;;;11.15;;
36321;SDS011;23564;48.290;11.460;2023-06-10T05:42:36;13.38;;;10.95;;
36321;SDS011;23564;48.290;11.460;2023-06-10T05:45:02;15.68;;;10.70;;
36321;SDS011;23564;48.290;11.460;2023-06-10T05:47:28;13.25;;;10.68;;
36321;SDS011;23564;48.290;11.460;2023-06-10T05:49:53;13.90;;;10.15;;
36321;SDS011;23564;48.290;11.460;2023-06-10T05:52:19;14.88;;;10.02;;
36321;SDS011;23564;48.290;11.460;2023-06-10T05:54:44;13.43;;;10.00;;
36321;SDS011;23564;48.290;11.460;2023-06-10T05:57:10;15.13;;;9.93;;
36321;SDS011;23564;48.290;11.460;2023-06-10T05:59:36;14.23;;;10.18;;
36321;SDS011;23564;48.290;11.460;2023-06-10T06:02:02;12.70;;;10.27;;
36321;SDS011;23564;48.290;11.460;2023-06-10T06:04:28;12.27;;;10.15;;
36321;SDS011;23564;48.290;11.460;2023-06-10T06:06:53;13.60;;;10.48;;
36321;SDS011;23564;48.290;11.460;2023-06-10T06:09:19;13.15;;;10.32;;
36321;SDS011;23564;48.290;11.460;2023-06-10T06:11:45;15.13;;;9.65;;
36321;SDS011;23564;48.290;11.460;2023-06-10T06:14:10;13.35;;;9.70;;
36321;SDS011;23564;48.290;11.460;2023-06-10T06:16:36;12.38;;;9.50;;
36321;SDS011;23564;48.290;11.460;2023-06-10T06:19:01;12.38;;;10.20;;
36321;SDS011;23564;48.290;11.460;2023-06-10T06:21:27;13.45;;;9.93;;
36321;SDS011;23564;48.290;11.460;2023-06-10T06:23:53;12.30;;;10.38;;
36321;SDS011;23564;48.290;11.460;2023-06-10T06:26:18;13.25;;;10.13;;
36321;SDS011;23564;48.290;11.460;2023-06-10T06:28:44;12.77;;;9.70;;
36321;SDS011;23564;48.290;11.460;2023-06-10T06:31:09;14.45;;;10.38;;
36321;SDS011;23564;48.290;11.460;2023-06-10T06:33:35;13.75;;;10.02;;
36321;SDS011;23564;48.290;11.460;2023-06-10T06:36:00;13.73;;;9.65;;
36321;SDS011;23564;48.290;11.460;2023-06-10T06:38:26;11.10;;;9.05;;
36321;SDS011;23564;48.290;11.460;2023-06-10T06:40:52;12.73;;;10.27;;
36321;SDS011;23564;48.290;11.460;2023-06-10T06:43:17;16.55;;;10.57;;
36321;SDS011;23564;48.290;11.460;2023-06-10T06:45:43;13.90;;;9.93;;
36321;SDS011;23564;48.290;11.460;2023-06-10T06:48:11;11.70;;;8.98;;
36321;SDS011;23564;48.290;11.460;2023-06-10T06:50:36;15.77;;;10.75;;
36321;SDS011;23564;48.290;11.460;2023-06-10T06:53:03;12.30;;;9.60;;
36321;SDS011;23564;48.290;11.460;2023-06-10T06:55:29;10.65;;;9.07;;
36321;SDS011;23564;48.290;11.460;2023-06-10T06:57:54;11.50;;;8.98;;
36321;SDS011;23564;48.290;11.460;2023-06-10T07:00:20;10.30;;;8.90;;
36321;SDS011;23564;48.290;11.460;2023-06-10T07:02:46;12.05;;;9.88;;
36321;SDS011;23564;48.290;11.460;2023-06-10T07:05:12;12.57;;;10.05;;
36321;SDS011;23564;48.290;11.460;2023-06-10T07:07:37;12.00;;;9.60;;
36321;SDS011;23564;48.290;11.460;2023-06-10T07:10:03;12.00;;;9.63;;
36321;SDS011;23564;48.290;11.460;2023-06-10T07:12:28;12.68;;;9.63;;
36321;SDS011;23564;48.290;11.460;2023-06-10T07:14:54;11.20;;;9.07;;
36321;SDS011;23564;48.290;11.460;2023-06-10T07:17:20;12.45;;;9.02;;
36321;SDS011;23564;48.290;11.460;2023-06-10T07:19:45;12.07;;;8.13;;
36321;SDS011;23564;48.290;11.460;2023-06-10T07:22:11;9.50;;;8.13;;
36321;SDS011;23564;48.290;11.460;2023-06-10T07:24:37;10.45;;;8.50;;
36321;SDS011;23564;48.290;11.460;2023-06-10T07:27:02;10.25;;;8.15;;
36321;SDS011;23564;48.290;11.460;2023-06-10T07:29:28;12.70;;;9.15;;
36321;SDS011;23564;48.290;11.460;2023-06-10T07:31:54;10.90;;;8.63;;
36321;SDS011;23564;48.290;11.460;2023-06-10T07:34:19;10.13;;;8.02;;
36321;SDS011;23564;48.290;11.460;2023-06-10T07:36:45;11.35;;;9.85;;
36321;SDS011;23564;48.290;11.460;2023-06-10T07:39:10;12.00;;;8.65;;
36321;SDS011;23564;48.290;11.460;2023-06-10T07:41:36;10.50;;;8.88;;
36321;SDS011;23564;48.290;11.460;2023-06-10T07:44:02;15.88;;;9.95;;
36321;SDS011;23564;48.290;11.460;2023-06-10T07:46:27;11.00;;;9.65;;
36321;SDS011;23564;48.290;11.460;2023-06-10T07:48:53;12.10;;;9.77;;
36321;SDS011;23564;48.290;11.460;2023-06-10T07:51:20;11.02;;;8.73;;
36321;SDS011;23564;48.290;11.460;2023-06-10T07:53:46;11.38;;;8.65;;
36321;SDS011;23564;48.290;11.460;2023-06-10T07:56:12;10.60;;;8.73;;
36321;SDS011;23564;48.290;11.460;2023-06-10T07:58:37;11.43;;;8.85;;
36321;SDS011;23564;48.290;11.460;2023-06-10T08:01:03;10.05;;;7.97;;
36321;SDS011;23564;48.290;11.460;2023-06-10T08:03:29;8.73;;;7.60;;
36321;SDS011;23564;48.290;11.460;2023-06-10T08:05:54;10.70;;;8.38;;
36321;SDS011;23564;48.290;11.460;2023-06-10T08:08:20;9.77;;;8.15;;
36321;SDS011;23564;48.290;11.460;2023-06-10T08:10:46;11.90;;;8.95;;
36321;SDS011;23564;48.290;11.460;2023-06-10T08:13:11;11.20;;;9.80;;
36321;SDS011;23564;48.290;11.460;2023-06-10T08:15:37;13.15;;;10.05;;
36321;SDS011;23564;48.290;11.460;2023-06-10T08:18:03;11.27;;;9.27;;
36321;SDS011;23564;48.290;11.460;2023-06-10T08:20:28;13.18;;;10.55;;
36321;SDS011;23564;48.290;11.460;2023-06-10T08:22:54;8.32;;;6.32;;
36321;SDS011;23564;48.290;11.460;2023-06-10T08:25:20;8.10;;;6.60;;
36321;SDS011;23564;48.290;11.460;2023-06-10T08:27:47;9.93;;;7.30;;
36321;SDS011;23564;48.290;11.460;2023-06-10T08:30:13;9.55;;;7.82;;
36321;SDS011;23564;48.290;11.460;2023-06-10T08:32:39;11.20;;;8.63;;
36321;SDS011;23564;48.290;11.460;2023-06-10T08:35:04;9.05;;;6.22;;
36321;SDS011;23564;48.290;11.460;2023-06-10T08:37:30;8.02;;;6.40;;
36321;SDS011;23564;48.290;11.460;2023-06-10T08:39:56;11.25;;;8.27;;
36321;SDS011;23564;48.290;11.460;2023-06-10T08:42:28;9.65;;;6.82;;
36321;SDS011;23564;48.290;11.460;2023-06-10T08:45:00;8.40;;;7.15;;
36321;SDS011;23564;48.290;11.460;2023-06-10T08:47:27;10.70;;;7.53;;
36321;SDS011;23564;48.290;11.460;2023-06-10T08:49:56;9.50;;;7.20;;
36321;SDS011;23564;48.290;11.460;2023-06-10T08:52:28;8.05;;;6.82;;
36321;SDS011;23564;48.290;11.460;2023-06-10T08:55:04;8.38;;;7.10;;
36321;SDS011;23564;48.290;11.460;2023-06-10T08:57:37;8.68;;;7.78;;
36321;SDS011;23564;48.290;11.460;2023-06-10T09:00:03;8.82;;;6.60;;
36321;SDS011;23564;48.290;11.460;2023-06-10T09:02:31;7.28;;;6.03;;
36321;SDS011;23564;48.290;11.460;2023-06-10T09:05:00;8.40;;;5.95;;
36321;SDS011;23564;48.290;11.460;2023-06-10T09:07:26;9.55;;;6.32;;
36321;SDS011;23564;48.290;11.460;2023-06-10T09:09:53;7.88;;;6.45;;
36321;SDS011;23564;48.290;11.460;2023-06-10T09:12:19;7.63;;;6.20;;
36321;SDS011;23564;48.290;11.460;2023-06-10T09:14:45;7.95;;;6.20;;
36321;SDS011;23564;48.290;11.460;2023-06-10T09:17:10;9.43;;;7.22;;
36321;SDS011;23564;48.290;11.460;2023-06-10T09:19:36;7.38;;;6.55;;
36321;SDS011;23564;48.290;11.460;2023-06-10T09:22:04;11.10;;;6.72;;
36321;SDS011;23564;48.290;11.460;2023-06-10T09:24:30;9.45;;;6.43;;
36321;SDS011;23564;48.290;11.460;2023-06-10T09:27:03;6.70;;;6.00;;
36321;SDS011;23564;48.290;11.460;2023-06-10T09:29:30;8.05;;;6.32;;
36321;SDS011;23564;48.290;11.460;2023-06-10T09:31:55;6.20;;;5.60;;
36321;SDS011;23564;48.290;11.460;2023-06-10T09:34:24;5.50;;;5.00;;
36321;SDS011;23564;48.290;11.460;2023-06-10T09:36:50;7.38;;;5.00;;
36321;SDS011;23564;48.290;11.460;2023-06-10T09:39:17;5.97;;;5.38;;
36321;SDS011;23564;48.290;11.460;2023-06-10T09:41:44;6.03;;;5.20;;
36321;SDS011;23564;48.290;11.460;2023-06-10T09:44:14;5.68;;;5.03;;
36321;SDS011;23564;48.290;11.460;2023-06-10T09:46:43;5.65;;;4.95;;
36321;SDS011;23564;48.290;11.460;2023-06-10T09:49:10;5.15;;;4.65;;
36321;SDS011;23564;48.290;11.460;2023-06-10T09:51:36;5.70;;;5.10;;
36321;SDS011;23564;48.290;11.460;2023-06-10T09:54:02;5.07;;;4.57;;
36321;SDS011;23564;48.290;11.460;2023-06-10T09:56:32;6.75;;;5.10;;
36321;SDS011;23564;48.290;11.460;2023-06-10T09:58:59;5.68;;;4.63;;
36321;SDS011;23564;48.290;11.460;2023-06-10T10:01:25;8.10;;;5.63;;
36321;SDS011;23564;48.290;11.460;2023-06-10T10:03:51;10.95;;;5.25;;
36321;SDS011;23564;48.290;11.460;2023-06-10T10:06:17;7.47;;;5.82;;
36321;SDS011;23564;48.290;11.460;2023-06-10T10:08:48;7.35;;;6.07;;
36321;SDS011;23564;48.290;11.460;2023-06-10T10:11:19;6.30;;;5.43;;
36321;SDS011;23564;48.290;11.460;2023-06-10T10:13:50;6.38;;;5.63;;
36321;SDS011;23564;48.290;11.460;2023-06-10T10:16:17;6.50;;;5.55;;
36321;SDS011;23564;48.290;11.460;2023-06-10T10:18:54;6.93;;;5.45;;
36321;SDS011;23564;48.290;11.460;2023-06-10T10:21:22;6.30;;;4.80;;
36321;SDS011;23564;48.290;11.460;2023-06-10T10:23:58;5.75;;;5.05;;
36321;SDS011;23564;48.290;11.460;2023-06-10T10:26:41;6.30;;;5.30;;
36321;SDS011;23564;48.290;11.460;2023-06-10T10:29:10;5.68;;;5.07;;
36321;SDS011;23564;48.290;11.460;2023-06-10T10:31:41;5.25;;;4.53;;
36321;SDS011;23564;48.290;11.460;2023-06-10T10:34:18;5.45;;;3.92;;
36321;SDS011;23564;48.290;11.460;2023-06-10T10:36:50;4.70;;;4.20;;
36321;SDS011;23564;48.290;11.460;2023-06-10T10:39:16;6.57;;;4.10;;
36321;SDS011;23564;48.290;11.460;2023-06-10T10:41:43;4.55;;;3.67;;
36321;SDS011;23564;48.290;11.460;2023-06-10T10:44:10;5.45;;;4.05;;
36321;SDS011;23564;48.290;11.460;2023-06-10T10:47:10;5.25;;;4.28;;
36321;SDS011;23564;48.290;11.460;2023-06-10T10:49:30;5.40;;;4.10;;
36321;SDS011;23564;48.290;11.460;2023-06-10T10:51:57;5.13;;;4.53;;
36321;SDS011;23564;48.290;11.460;2023-06-10T10:54:31;5.30;;;4.13;;
36321;SDS011;23564;48.290;11.460;2023-06-10T10:57:14;6.38;;;4.10;;
36321;SDS011;23564;48.290;11.460;2023-06-10T11:02:36;7.05;;;4.63;;
36321;SDS011;23564;48.290;11.460;2023-06-10T11:05:10;5.00;;;4.45;;
36321;SDS011;23564;48.290;11.460;2023-06-10T11:07:40;5.93;;;4.90;;
36321;SDS011;23564;48.290;11.460;2023-06-10T11:10:17;6.40;;;4.40;;
36321;SDS011;23564;48.290;11.460;2023-06-10T11:12:53;6.07;;;4.70;;
36321;SDS011;23564;48.290;11.460;2023-06-10T11:15:20;5.45;;;4.93;;
36321;SDS011;23564;48.290;11.460;2023-06-10T11:18:09;5.03;;;4.53;;
36321;SDS011;23564;48.290;11.460;2023-06-10T11:23:24;4.90;;;4.32;;
36321;SDS011;23564;48.290;11.460;2023-06-10T11:25:51;4.85;;;4.03;;
36321;SDS011;23564;48.290;11.460;2023-06-10T11:28:19;5.07;;;3.67;;
36321;SDS011;23564;48.290;11.460;2023-06-10T11:30:45;5.60;;;3.95;;
36321;SDS011;23564;48.290;11.460;2023-06-10T11:33:14;4.60;;;4.13;;
36321;SDS011;23564;48.290;11.460;2023-06-10T11:35:42;6.22;;;4.75;;
36321;SDS011;23564;48.290;11.460;2023-06-10T11:38:08;10.77;;;5.03;;
36321;SDS011;23564;48.290;11.460;2023-06-10T11:40:36;5.55;;;4.68;;
36321;SDS011;23564;48.290;11.460;2023-06-10T11:43:03;8.40;;;4.80;;
36321;SDS011;23564;48.290;11.460;2023-06-10T11:45:29;6.13;;;4.75;;
36321;SDS011;23564;48.290;11.460;2023-06-10T11:47:55;6.45;;;4.60;;
36321;SDS011;23564;48.290;11.460;2023-06-10T11:50:31;5.07;;;4.32;;
36321;SDS011;23564;48.290;11.460;2023-06-10T11:52:58;4.85;;;4.32;;
36321;SDS011;23564;48.290;11.460;2023-06-10T11:55:43;5.20;;;4.70;;
36321;SDS011;23564;48.290;11.460;2023-06-10T11:58:19;5.47;;;4.80;;
36321;SDS011;23564;48.290;11.460;2023-06-10T12:03:16;5.50;;;4.78;;
36321;SDS011;23564;48.290;11.460;2023-06-10T12:05:57;6.22;;;4.43;;
36321;SDS011;23564;48.290;11.460;2023-06-10T12:08:25;5.70;;;3.83;;
36321;SDS011;23564;48.290;11.460;2023-06-10T12:10:51;6.97;;;4.80;;
36321;SDS011;23564;48.290;11.460;2023-06-10T12:13:16;5.05;;;4.55;;
36321;SDS011;23564;48.290;11.460;2023-06-10T12:15:45;6.20;;;4.35;;
36321;SDS011;23564;48.290;11.460;2023-06-10T12:18:23;6.15;;;3.78;;
36321;SDS011;23564;48.290;11.460;2023-06-10T12:20:49;4.28;;;3.35;;
36321;SDS011;23564;48.290;11.460;2023-06-10T12:23:16;3.67;;;3.33;;
36321;SDS011;23564;48.290;11.460;2023-06-10T12:25:54;3.42;;;3.10;;
36321;SDS011;23564;48.290;11.460;2023-06-10T12:28:21;5.80;;;3.58;;
36321;SDS011;23564;48.290;11.460;2023-06-10T12:30:47;6.85;;;4.20;;
36321;SDS011;23564;48.290;11.460;2023-06-10T12:33:20;4.45;;;3.72;;
36321;SDS011;23564;48.290;11.460;2023-06-10T12:35:49;6.70;;;4.10;;
36321;SDS011;23564;48.290;11.460;2023-06-10T12:38:25;4.65;;;3.90;;
36321;SDS011;23564;48.290;11.460;2023-06-10T12:41:00;4.40;;;4.00;;
36321;SDS011;23564;48.290;11.460;2023-06-10T12:43:28;5.53;;;4.25;;
36321;SDS011;23564;48.290;11.460;2023-06-10T12:46:07;3.97;;;3.40;;
36321;SDS011;23564;48.290;11.460;2023-06-10T12:48:34;6.10;;;3.83;;
36321;SDS011;23564;48.290;11.460;2023-06-10T12:51:00;4.28;;;3.88;;
36321;SDS011;23564;48.290;11.460;2023-06-10T12:53:26;5.22;;;4.43;;
36321;SDS011;23564;48.290;11.460;2023-06-10T12:55:52;5.07;;;4.45;;
36321;SDS011;23564;48.290;11.460;2023-06-10T12:58:21;5.25;;;4.00;;
36321;SDS011;23564;48.290;11.460;2023-06-10T13:00:47;6.70;;;4.88;;
36321;SDS011;23564;48.290;11.460;2023-06-10T13:03:13;5.85;;;4.90;;
36321;SDS011;23564;48.290;11.460;2023-06-10T13:05:39;5.65;;;4.60;;
36321;SDS011;23564;48.290;11.460;2023-06-10T13:08:06;6.10;;;4.53;;
36321;SDS011;23564;48.290;11.460;2023-06-10T13:10:32;5.20;;;4.70;;
36321;SDS011;23564;48.290;11.460;2023-06-10T13:12:59;9.82;;;4.68;;
36321;SDS011;23564;48.290;11.460;2023-06-10T13:15:25;4.80;;;4.30;;
36321;SDS011;23564;48.290;11.460;2023-06-10T13:17:51;5.85;;;4.97;;
36321;SDS011;23564;48.290;11.460;2023-06-10T13:20:17;6.03;;;5.30;;
36321;SDS011;23564;48.290;11.460;2023-06-10T13:22:44;5.38;;;4.63;;
36321;SDS011;23564;48.290;11.460;2023-06-10T13:25:10;5.85;;;4.93;;
36321;SDS011;23564;48.290;11.460;2023-06-10T13:27:36;8.07;;;4.97;;
36321;SDS011;23564;48.290;11.460;2023-06-10T13:30:08;4.97;;;4.47;;
36321;SDS011;23564;48.290;11.460;2023-06-10T13:32:35;6.25;;;4.78;;
36321;SDS011;23564;48.290;11.460;2023-06-10T13:35:01;5.15;;;3.95;;
36321;SDS011;23564;48.290;11.460;2023-06-10T13:37:27;4.35;;;3.92;;
36321;SDS011;23564;48.290;11.460;2023-06-10T13:39:53;5.00;;;4.00;;
36321;SDS011;23564;48.290;11.460;2023-06-10T13:42:19;4.22;;;3.75;;
36321;SDS011;23564;48.290;11.460;2023-06-10T13:44:45;4.70;;;3.90;;
36321;SDS011;23564;48.290;11.460;2023-06-10T13:47:12;5.72;;;3.65;;
36321;SDS011;23564;48.290;11.460;2023-06-10T13:49:38;6.93;;;3.47;;
36321;SDS011;23564;48.290;11.460;2023-06-10T13:52:04;4.20;;;3.80;;
36321;SDS011;23564;48.290;11.460;2023-06-10T13:54:29;5.97;;;3.92;;
36321;SDS011;23564;48.290;11.460;2023-06-10T13:56:55;4.65;;;3.78;;
36321;SDS011;23564;48.290;11.460;2023-06-10T13:59:20;6.18;;;4.47;;
36321;SDS011;23564;48.290;11.460;2023-06-10T14:01:46;5.30;;;3.75;;
36321;SDS011;23564;48.290;11.460;2023-06-10T14:04:12;5.78;;;4.05;;
36321;SDS011;23564;48.290;11.460;2023-06-10T14:06:38;7.50;;;4.97;;
36321;SDS011;23564;48.290;11.460;2023-06-10T14:09:04;5.47;;;4.97;;
36321;SDS011;23564;48.290;11.460;2023-06-10T14:11:30;6.70;;;4.78;;
36321;SDS011;23564;48.290;11.460;2023-06-10T14:13:56;8.05;;;5.60;;
36321;SDS011;23564;48.290;11.460;2023-06-10T14:16:22;8.95;;;5.78;;
36321;SDS011;23564;48.290;11.460;2023-06-10T14:18:49;6.38;;;5.57;;
36321;SDS011;23564;48.290;11.460;2023-06-10T14:21:17;6.95;;;5.40;;
36321;SDS011;23564;48.290;11.460;2023-06-10T14:23:43;7.82;;;5.13;;
36321;SDS011;23564;48.290;11.460;2023-06-10T14:26:09;7.50;;;5.03;;
36321;SDS011;23564;48.290;11.460;2023-06-10T14:28:35;7.40;;;4.75;;
36321;SDS011;23564;48.290;11.460;2023-06-10T14:31:00;6.15;;;4.05;;
36321;SDS011;23564;48.290;11.460;2023-06-10T14:33:26;5.50;;;4.45;;